createdAt,value
2019-02-08T00:01:39.000Z,56.50
2019-02-08T00:04:08.673Z,56.50
2019-02-08T00:06:38.197Z,56.50
2019-02-08T00:09:09.743Z,56.60
2019-02-08T00:11:39.591Z,56.50
2019-02-08T00:14:09.401Z,56.60
2019-02-08T00:16:39.160Z,56.60
2019-02-08T00:19:08.995Z,56.50
2019-02-08T00:21:38.518Z,56.50
2019-02-08T00:24:08.075Z,56.50
2019-02-08T00:26:37.586Z,56.60
2019-02-08T00:29:07.435Z,56.60
2019-02-08T00:31:36.937Z,56.60
2019-02-08T00:34:06.473Z,56.60
2019-02-08T00:36:35.985Z,56.60
2019-02-08T00:39:09.996Z,56.60
2019-02-08T00:41:39.548Z,56.60
2019-02-08T00:44:09.704Z,56.60
2019-02-08T00:46:39.161Z,56.60
2019-02-08T00:49:09.024Z,56.60
2019-02-08T00:51:38.498Z,56.60
2019-02-08T00:54:08.035Z,56.60
2019-02-08T00:56:37.534Z,56.60
2019-02-08T00:59:07.372Z,56.50
2019-02-08T01:01:39.964Z,56.50
2019-02-08T01:04:09.499Z,56.60
2019-02-08T01:06:38.923Z,56.60
2019-02-08T01:09:09.689Z,56.60
2019-02-08T01:11:39.175Z,56.60
2019-02-08T01:14:08.967Z,56.60
2019-02-08T01:16:38.359Z,56.60
2019-02-08T01:19:07.900Z,56.60
2019-02-08T01:21:37.410Z,56.60
2019-02-08T01:24:06.988Z,56.60
2019-02-08T01:26:36.483Z,56.60
2019-02-08T01:29:05.884Z,56.60
2019-02-08T01:31:35.753Z,56.60
2019-02-08T01:34:05.308Z,56.60
2019-02-08T01:36:34.830Z,56.60
2019-02-08T01:39:06.537Z,56.60
2019-02-08T01:41:36.048Z,56.60
2019-02-08T01:44:05.606Z,56.60
2019-02-08T01:46:35.088Z,56.60
2019-02-08T01:49:04.655Z,56.60
2019-02-08T01:51:34.156Z,56.60
2019-02-08T01:54:03.736Z,56.60
2019-02-08T01:56:33.287Z,56.60
2019-02-08T01:59:02.805Z,56.60
2019-02-08T02:01:32.314Z,56.60
2019-02-08T02:04:01.747Z,56.60
2019-02-08T02:06:31.479Z,56.60
2019-02-08T02:09:01.098Z,56.50
2019-02-08T02:11:30.577Z,56.60
2019-02-08T02:14:00.101Z,56.60
2019-02-08T02:16:29.659Z,56.60
2019-02-08T02:18:59.186Z,56.60
2019-02-08T02:21:28.998Z,56.50
2019-02-08T02:23:58.511Z,56.60
2019-02-08T02:26:28.040Z,56.60
2019-02-08T02:28:57.488Z,56.50
2019-02-08T02:31:26.973Z,56.50
2019-02-08T02:33:56.500Z,56.50
2019-02-08T02:36:26.041Z,56.50
2019-02-08T02:38:55.614Z,56.50
2019-02-08T02:41:25.063Z,56.50
2019-02-08T02:43:54.561Z,56.60
2019-02-08T02:46:24.044Z,56.60
2019-02-08T02:48:53.531Z,56.60
2019-02-08T02:51:22.993Z,56.60
2019-02-08T02:53:52.525Z,56.50
2019-02-08T02:56:22.036Z,56.50
2019-02-08T02:58:51.586Z,56.50
2019-02-08T03:01:21.064Z,56.50
2019-02-08T03:03:50.926Z,56.50
2019-02-08T03:06:20.480Z,56.50
2019-02-08T03:08:49.869Z,56.50
2019-02-08T03:11:19.393Z,56.50
2019-02-08T03:13:49.506Z,56.50
2019-02-08T03:16:19.006Z,56.50
2019-02-08T03:18:48.542Z,56.50
2019-02-08T03:21:18.065Z,56.50
2019-02-08T03:23:47.581Z,56.50
2019-02-08T03:26:17.012Z,56.50
2019-02-08T03:28:46.550Z,56.50
2019-02-08T03:31:16.050Z,56.50
2019-02-08T03:33:45.543Z,56.50
2019-02-08T03:36:15.070Z,56.50
2019-02-08T03:38:44.561Z,56.50
2019-02-08T03:41:14.070Z,56.50
2019-02-08T03:43:43.587Z,56.50
2019-02-08T03:46:13.244Z,56.50
2019-02-08T03:48:42.742Z,57.10
2019-02-08T03:51:12.315Z,56.50
2019-02-08T03:53:41.818Z,56.50
2019-02-08T03:56:11.328Z,56.50
2019-02-08T03:58:40.829Z,56.50
2019-02-08T04:01:11.122Z,56.50
2019-02-08T04:03:41.311Z,56.50
2019-02-08T04:06:10.805Z,56.50
2019-02-08T04:08:40.333Z,56.50
2019-02-08T04:11:09.823Z,56.50
2019-02-08T04:13:39.346Z,56.50
2019-02-08T04:16:08.884Z,56.50
2019-02-08T04:18:38.328Z,56.50
2019-02-08T04:21:07.879Z,56.50
2019-02-08T04:23:37.356Z,56.50
2019-02-08T04:26:07.186Z,56.50
2019-02-08T04:28:36.627Z,56.50
2019-02-08T04:31:06.159Z,56.50
2019-02-08T04:33:35.823Z,56.50
2019-02-08T04:36:05.311Z,56.50
2019-02-08T04:38:34.778Z,56.50
2019-02-08T04:41:04.269Z,56.50
2019-02-08T04:43:33.738Z,56.50
2019-02-08T04:46:03.282Z,56.50
2019-02-08T04:48:32.689Z,56.50
2019-02-08T04:51:02.246Z,56.50
2019-02-08T04:53:31.781Z,56.50
2019-02-08T04:56:01.207Z,56.50
2019-02-08T04:58:35.564Z,56.50
2019-02-08T05:01:01.890Z,56.50
2019-02-08T05:03:31.609Z,56.50
2019-02-08T05:06:01.479Z,56.50
2019-02-08T05:08:31.012Z,56.50
2019-02-08T05:11:00.543Z,56.50
2019-02-08T05:13:30.093Z,56.50
2019-02-08T05:15:59.629Z,56.50
2019-02-08T05:18:29.183Z,56.50
2019-02-08T05:20:58.672Z,56.50
2019-02-08T05:23:28.170Z,56.50
2019-02-08T05:25:57.690Z,56.50
2019-02-08T05:28:27.179Z,56.50
2019-02-08T05:30:56.727Z,56.50
2019-02-08T05:33:26.316Z,56.50
2019-02-08T05:35:55.792Z,56.50
2019-02-08T05:38:25.337Z,56.50
2019-02-08T05:40:54.702Z,56.50
2019-02-08T05:43:24.121Z,56.50
2019-02-08T05:45:53.622Z,56.50
2019-02-08T05:48:23.083Z,56.50
2019-02-08T05:50:52.917Z,56.50
2019-02-08T05:53:25.465Z,56.50
2019-02-08T05:55:54.985Z,56.50
2019-02-08T05:58:24.489Z,56.50
2019-02-08T06:00:58.072Z,56.50
2019-02-08T06:03:27.681Z,56.50
2019-02-08T06:06:00.267Z,56.50
2019-02-08T06:08:30.212Z,56.50
2019-02-08T06:10:59.675Z,56.50
2019-02-08T06:13:29.224Z,56.50
2019-02-08T06:15:58.647Z,56.50
2019-02-08T06:18:28.219Z,56.50
2019-02-08T06:20:57.653Z,56.50
2019-02-08T06:23:27.154Z,56.50
2019-02-08T06:25:56.643Z,56.50
2019-02-08T06:28:28.623Z,56.50
2019-02-08T06:30:58.106Z,56.50
2019-02-08T06:33:27.587Z,56.50
2019-02-08T06:35:57.823Z,56.50
2019-02-08T06:38:27.355Z,56.50
2019-02-08T06:40:56.836Z,56.50
2019-02-08T06:43:26.388Z,56.50
2019-02-08T06:45:55.862Z,56.50
2019-02-08T06:48:25.305Z,56.50
2019-02-08T06:50:54.826Z,56.50
2019-02-08T06:53:24.350Z,56.40
2019-02-08T06:55:54.164Z,56.40
2019-02-08T06:58:31.674Z,56.50
2019-02-08T07:01:18.585Z,56.50
2019-02-08T07:04:22.577Z,56.50
2019-02-08T07:07:01.492Z,56.50
2019-02-08T07:09:59.147Z,56.50
2019-02-08T07:12:47.637Z,56.50
2019-02-08T07:15:38.788Z,56.50
2019-02-08T07:18:27.202Z,56.50
2019-02-08T07:21:21.627Z,56.50
2019-02-08T07:24:22.131Z,56.50
2019-02-08T07:27:13.272Z,56.50
2019-02-08T07:30:10.554Z,56.50
2019-02-08T07:32:58.977Z,56.50
2019-02-08T07:35:59.524Z,56.50
2019-02-08T07:38:37.049Z,56.50
2019-02-08T07:41:25.100Z,56.50
2019-02-08T07:44:16.568Z,56.50
2019-02-08T07:47:11.006Z,56.50
2019-02-08T07:49:59.485Z,56.50
2019-02-08T07:52:46.343Z,57.00
2019-02-08T07:55:47.400Z,56.50
2019-02-08T07:58:35.770Z,56.50
2019-02-08T08:01:19.117Z,56.50
2019-02-08T08:04:02.911Z,56.50
2019-02-08T08:06:42.645Z,56.50
2019-02-08T08:09:24.692Z,56.50
2019-02-08T08:12:11.682Z,56.50
2019-02-08T08:14:49.056Z,56.50
2019-02-08T08:17:40.630Z,56.50
2019-02-08T08:20:38.409Z,56.40
2019-02-08T08:23:29.855Z,56.50
2019-02-08T08:26:19.628Z,56.50
2019-02-08T08:29:25.990Z,56.50
2019-02-08T08:32:25.014Z,56.40
2019-02-08T08:35:41.413Z,56.50
2019-02-08T08:38:39.862Z,56.40
2019-02-08T08:42:05.523Z,56.40
2019-02-08T08:45:16.687Z,56.40
2019-02-08T08:48:21.105Z,56.40
2019-02-08T08:51:20.265Z,56.40
2019-02-08T08:54:51.898Z,56.40
2019-02-08T08:57:46.626Z,56.40
2019-02-08T09:00:41.341Z,56.30
2019-02-08T09:03:50.618Z,56.80
2019-02-08T09:07:03.914Z,56.30
2019-02-08T09:10:23.460Z,56.20
2019-02-08T09:13:29.499Z,56.10
2019-02-08T09:16:33.987Z,56.10
2019-02-08T09:19:58.424Z,56.10
2019-02-08T09:22:59.952Z,56.10
2019-02-08T09:26:09.061Z,56.10
2019-02-08T09:29:06.328Z,56.10
2019-02-08T09:32:17.251Z,56.00
2019-02-08T09:35:09.234Z,56.00
2019-02-08T09:38:03.861Z,56.00
2019-02-08T09:41:15.930Z,55.90
2019-02-08T09:44:28.530Z,55.90
2019-02-08T09:47:31.449Z,55.90
2019-02-08T09:50:50.345Z,55.80
2019-02-08T09:53:39.329Z,55.80
2019-02-08T09:56:54.213Z,55.80
2019-02-08T09:59:59.442Z,55.70
2019-02-08T10:03:03.310Z,55.70
2019-02-08T10:06:08.395Z,55.70
2019-02-08T10:09:08.573Z,55.70
2019-02-08T10:12:21.005Z,55.70
2019-02-08T10:15:37.308Z,55.70
2019-02-08T10:18:52.333Z,55.70
2019-02-08T10:22:13.990Z,55.70
2019-02-08T10:25:33.492Z,55.80
2019-02-08T10:29:08.083Z,55.80
2019-02-08T10:32:14.682Z,55.80
2019-02-08T10:35:43.455Z,55.80
2019-02-08T10:38:47.551Z,55.80
2019-02-08T10:41:43.387Z,55.90
2019-02-08T10:44:59.014Z,55.90
2019-02-08T10:48:13.889Z,55.90
2019-02-08T10:51:34.054Z,55.90
2019-02-08T10:54:56.358Z,55.90
2019-02-08T10:58:06.826Z,56.50
2019-02-08T11:01:23.532Z,55.90
2019-02-08T11:04:35.360Z,55.90
2019-02-08T11:07:49.221Z,55.90
2019-02-08T11:11:13.611Z,55.90
2019-02-08T11:14:13.370Z,56.00
2019-02-08T11:17:30.813Z,56.00
2019-02-08T11:20:00.272Z,56.00
2019-02-08T11:22:29.826Z,56.00
2019-02-08T11:24:59.335Z,56.00
2019-02-08T11:27:28.865Z,56.00
2019-02-08T11:29:58.495Z,56.00
2019-02-08T11:32:42.553Z,56.00
2019-02-08T11:34:59.169Z,56.00
2019-02-08T11:37:28.684Z,56.00
2019-02-08T11:39:58.168Z,56.00
2019-02-08T11:42:27.665Z,56.00
2019-02-08T11:44:57.140Z,56.00
2019-02-08T11:47:26.741Z,56.00
2019-02-08T11:49:56.217Z,56.00
2019-02-08T11:52:25.775Z,56.00
2019-02-08T11:54:55.585Z,56.00
2019-02-08T11:57:25.088Z,56.00
2019-02-08T11:59:54.577Z,56.00
2019-02-08T12:02:24.244Z,56.00
2019-02-08T12:04:53.729Z,56.00
2019-02-08T12:07:23.324Z,56.00
2019-02-08T12:09:52.871Z,56.00
2019-02-08T12:12:22.380Z,56.00
2019-02-08T12:14:51.921Z,56.00
2019-02-08T12:17:21.451Z,56.00
2019-02-08T12:19:51.610Z,56.00
2019-02-08T12:22:21.444Z,56.00
2019-02-08T12:24:52.497Z,56.00
2019-02-08T12:27:22.832Z,56.00
2019-02-08T12:29:52.317Z,56.00
2019-02-08T12:32:21.768Z,56.00
2019-02-08T12:34:51.714Z,56.00
2019-02-08T12:37:21.255Z,56.00
2019-02-08T12:39:50.946Z,56.00
2019-02-08T12:42:20.411Z,56.00
2019-02-08T12:44:51.242Z,56.10
2019-02-08T12:47:21.435Z,56.10
2019-02-08T12:49:51.012Z,55.90
2019-02-08T12:52:20.540Z,56.00
2019-02-08T12:54:50.030Z,56.10
2019-02-08T12:57:19.581Z,55.90
2019-02-08T12:59:49.156Z,56.00
2019-02-08T13:02:18.655Z,56.00
2019-02-08T13:04:48.228Z,56.00
2019-02-08T13:07:17.696Z,56.50
2019-02-08T13:09:47.281Z,56.00
2019-02-08T13:12:16.767Z,55.90
2019-02-08T13:14:46.396Z,56.00
2019-02-08T13:17:15.941Z,55.90
2019-02-08T13:19:45.464Z,56.00
2019-02-08T13:22:15.138Z,55.90
2019-02-08T13:24:44.737Z,56.50
2019-02-08T13:27:14.593Z,55.90
2019-02-08T13:29:44.200Z,56.00
2019-02-08T13:32:13.754Z,56.00
2019-02-08T13:34:43.261Z,56.10
2019-02-08T13:37:12.760Z,56.00
2019-02-08T13:39:42.283Z,55.90
2019-02-08T13:42:11.794Z,56.00
2019-02-08T13:44:41.469Z,56.00
2019-02-08T13:47:11.044Z,56.00
2019-02-08T13:49:40.567Z,56.00
2019-02-08T13:52:10.214Z,56.10
2019-02-08T13:54:40.482Z,56.00
2019-02-08T13:57:10.344Z,56.00
2019-02-08T13:59:40.458Z,56.10
2019-02-08T14:02:09.954Z,55.90
2019-02-08T14:04:39.519Z,56.00
2019-02-08T14:07:09.243Z,56.10
2019-02-08T14:09:39.134Z,56.10
2019-02-08T14:12:08.913Z,56.00
2019-02-08T14:14:38.408Z,56.10
2019-02-08T14:17:07.939Z,56.00
2019-02-08T14:19:37.457Z,56.00
2019-02-08T14:22:07.026Z,56.10
2019-02-08T14:24:36.884Z,56.10
2019-02-08T14:27:08.535Z,56.10
2019-02-08T14:29:37.973Z,56.10
2019-02-08T14:32:07.517Z,56.10
2019-02-08T14:34:43.538Z,56.10
2019-02-08T14:37:08.338Z,56.10
2019-02-08T14:39:37.855Z,56.10
2019-02-08T14:42:07.372Z,56.10
2019-02-08T14:44:37.077Z,56.10
2019-02-08T14:47:06.578Z,56.10
2019-02-08T14:49:36.075Z,56.00
2019-02-08T14:52:05.550Z,56.10
2019-02-08T14:54:35.341Z,56.20
2019-02-08T14:57:06.483Z,56.10
2019-02-08T14:59:35.996Z,56.10
2019-02-08T15:02:05.501Z,56.10
2019-02-08T15:04:35.386Z,56.10
2019-02-08T15:07:04.955Z,56.10
2019-02-08T15:09:34.446Z,56.10
2019-02-08T15:12:04.655Z,56.10
2019-02-08T15:14:34.446Z,56.10
2019-02-08T15:17:04.171Z,56.10
2019-02-08T15:19:33.886Z,56.10
2019-02-08T15:22:03.583Z,56.10
2019-02-08T15:24:33.256Z,56.10
2019-02-08T15:27:02.788Z,56.10
2019-02-08T15:29:33.183Z,56.10
2019-02-08T15:32:02.632Z,56.10
2019-02-08T15:34:32.130Z,56.10
2019-02-08T15:37:01.709Z,56.10
2019-02-08T15:39:31.312Z,56.20
2019-02-08T15:42:00.897Z,56.20
2019-02-08T15:44:31.123Z,56.20
2019-02-08T15:47:00.855Z,56.20
2019-02-08T15:49:30.660Z,56.20
2019-02-08T15:52:00.489Z,56.20
2019-02-08T15:54:30.256Z,56.30
2019-02-08T15:56:59.793Z,56.30
2019-02-08T15:59:29.694Z,56.20
2019-02-08T16:01:59.184Z,56.20
2019-02-08T16:04:28.763Z,56.20
2019-02-08T16:06:58.288Z,56.20
2019-02-08T16:09:28.182Z,56.30
2019-02-08T16:11:57.662Z,56.30
2019-02-08T16:14:27.179Z,56.30
2019-02-08T16:16:56.579Z,56.20
2019-02-08T16:19:26.208Z,56.20
2019-02-08T16:21:55.782Z,56.30
2019-02-08T16:24:25.412Z,56.30
2019-02-08T16:26:55.001Z,56.30
2019-02-08T16:29:24.571Z,56.30
2019-02-08T16:31:54.062Z,56.30
2019-02-08T16:34:23.578Z,56.30
2019-02-08T16:36:53.430Z,56.30
2019-02-08T16:39:22.866Z,56.30
2019-02-08T16:41:52.796Z,56.30
2019-02-08T16:44:22.378Z,56.30
2019-02-08T16:46:51.799Z,56.30
2019-02-08T16:49:21.349Z,56.30
2019-02-08T16:51:50.824Z,56.30
2019-02-08T16:54:20.323Z,56.30
2019-02-08T16:56:49.873Z,56.30
2019-02-08T16:59:19.568Z,56.30
2019-02-08T17:01:49.052Z,56.40
2019-02-08T17:04:18.570Z,56.30
2019-02-08T17:06:48.045Z,56.40
2019-02-08T17:09:17.944Z,56.40
2019-02-08T17:11:47.435Z,56.40
2019-02-08T17:14:16.925Z,56.40
2019-02-08T17:16:46.429Z,56.40
2019-02-08T17:19:15.979Z,56.50
2019-02-08T17:21:45.598Z,56.40
2019-02-08T17:24:15.559Z,56.40
2019-02-08T17:26:45.074Z,56.40
2019-02-08T17:29:14.580Z,56.40
2019-02-08T17:31:45.100Z,56.50
2019-02-08T17:34:14.712Z,56.50
2019-02-08T17:36:44.237Z,56.40
2019-02-08T17:39:14.764Z,56.40
2019-02-08T17:41:44.319Z,56.50
2019-02-08T17:44:14.033Z,56.40
2019-02-08T17:46:43.787Z,56.40
2019-02-08T17:49:13.491Z,56.50
2019-02-08T17:51:43.111Z,56.50
2019-02-08T17:54:12.652Z,56.50
2019-02-08T17:56:43.093Z,56.50
2019-02-08T17:59:12.601Z,56.50
2019-02-08T18:01:42.111Z,56.50
2019-02-08T18:04:22.709Z,56.50
2019-02-08T18:06:54.120Z,56.50
2019-02-08T18:09:23.788Z,56.50
2019-02-08T18:11:54.925Z,56.50
2019-02-08T18:14:24.712Z,56.50
2019-02-08T18:16:54.530Z,56.50
2019-02-08T18:19:24.231Z,56.50
2019-02-08T18:21:54.727Z,56.50
2019-02-08T18:24:26.423Z,56.50
2019-02-08T18:26:56.045Z,56.50
2019-02-08T18:29:25.579Z,56.50
2019-02-08T18:31:55.737Z,56.50
2019-02-08T18:40:50.965Z,56.50
2019-02-08T18:43:32.575Z,55.20
2019-02-08T18:52:41.781Z,52.00
2019-02-08T18:58:43.552Z,50.60
2019-02-08T19:01:25.248Z,50.00
2019-02-08T19:07:15.154Z,49.10
2019-02-08T19:09:56.785Z,48.70
2019-02-08T19:12:38.170Z,48.40
2019-02-08T19:15:21.120Z,48.10
2019-02-08T19:18:02.826Z,47.90
2019-02-08T19:20:44.015Z,47.70
2019-02-08T19:23:25.716Z,47.50
2019-02-08T19:26:07.450Z,47.40
2019-02-08T19:29:07.930Z,47.30
2019-02-08T19:31:49.212Z,47.10
2019-02-08T19:34:30.672Z,47.10
2019-02-08T19:37:11.826Z,47.00
2019-02-08T19:39:53.080Z,47.00
2019-02-08T19:42:34.735Z,46.70
2019-02-08T19:45:16.415Z,46.80
2019-02-08T19:47:57.881Z,46.80
2019-02-08T20:02:44.848Z,46.50
2019-02-08T20:05:16.666Z,46.50
2019-02-08T20:07:46.243Z,46.50
2019-02-08T20:10:17.839Z,46.50
2019-02-08T20:12:47.408Z,46.50
2019-02-08T20:15:17.893Z,46.50
2019-02-08T20:17:47.915Z,46.50
2019-02-08T20:20:17.666Z,46.70
2019-02-08T20:22:47.109Z,47.30
2019-02-08T20:25:18.769Z,48.10
2019-02-08T20:27:48.444Z,48.70
2019-02-08T20:30:19.748Z,49.40
2019-02-08T20:32:49.492Z,50.10
2019-02-08T20:35:20.408Z,50.70
2019-02-08T20:37:50.343Z,51.30
2019-02-08T20:40:37.099Z,51.60
2019-02-08T20:43:06.645Z,52.10
2019-02-08T20:45:36.365Z,53.20
2019-02-08T20:48:11.565Z,52.90
2019-02-08T20:50:41.202Z,53.30
2019-02-08T20:53:10.800Z,53.60
2019-02-08T20:55:40.397Z,57.20
2019-02-08T20:58:11.228Z,55.70
2019-02-08T21:00:41.437Z,54.20
2019-02-08T21:03:12.933Z,54.40
2019-02-08T21:05:43.701Z,54.60
2019-02-08T21:08:13.558Z,54.70
2019-02-08T21:10:44.169Z,54.80
2019-02-08T21:13:13.620Z,54.80
2019-02-08T21:15:43.517Z,55.00
2019-02-08T21:18:13.730Z,55.10
2019-02-08T21:20:44.397Z,55.20
2019-02-08T21:23:15.193Z,55.30
2019-02-08T21:25:52.283Z,55.30
2019-02-08T21:28:17.071Z,55.40
2019-02-08T21:30:46.688Z,55.40
2019-02-08T21:33:17.055Z,55.50
2019-02-08T21:35:46.671Z,55.50
2019-02-08T21:38:16.507Z,55.50
2019-02-08T21:41:28.395Z,55.50
2019-02-08T21:44:14.163Z,55.50
2019-02-08T21:46:44.077Z,55.70
2019-02-08T21:49:13.827Z,55.70
2019-02-08T21:51:43.352Z,55.60
2019-02-08T21:54:12.817Z,55.70
2019-02-08T21:56:42.667Z,55.70
2019-02-08T21:59:12.186Z,57.80
2019-02-08T22:01:41.706Z,55.70
2019-02-08T22:04:11.182Z,55.70
2019-02-08T22:06:40.800Z,55.70
2019-02-08T22:09:10.291Z,55.80
2019-02-08T22:11:39.728Z,55.80
2019-02-08T22:14:09.232Z,55.80
2019-02-08T22:16:38.743Z,55.70
2019-02-08T22:19:08.313Z,55.70
2019-02-08T22:21:37.790Z,55.80
2019-02-08T22:24:07.443Z,55.80
2019-02-08T22:26:40.927Z,55.80
2019-02-08T22:29:19.129Z,56.60
2019-02-08T22:31:48.650Z,55.90
2019-02-08T22:34:18.252Z,56.70
2019-02-08T22:36:49.417Z,56.70
2019-02-08T22:39:18.995Z,56.70
2019-02-08T22:41:48.677Z,56.70
2019-02-08T22:44:18.128Z,56.70
2019-02-08T22:46:47.638Z,56.70
2019-02-08T22:49:17.204Z,56.70
2019-02-08T22:51:46.779Z,56.70
2019-02-08T22:54:16.651Z,56.70
2019-02-08T22:56:58.976Z,56.70
2019-02-08T22:59:35.395Z,56.70
2019-02-08T23:02:05.265Z,56.80
2019-02-08T23:04:34.888Z,56.70
2019-02-08T23:07:25.893Z,56.70
2019-02-08T23:10:12.648Z,56.70
2019-02-08T23:12:48.778Z,56.80
2019-02-08T23:15:35.032Z,56.80
2019-02-08T23:18:17.570Z,56.80
2019-02-08T23:21:22.404Z,56.70
2019-02-08T23:24:09.648Z,56.70
2019-02-08T23:26:39.440Z,56.70
2019-02-08T23:29:08.944Z,56.70
2019-02-08T23:31:38.607Z,56.70
2019-02-08T23:34:08.136Z,56.70
2019-02-08T23:36:37.695Z,56.80
2019-02-08T23:39:12.310Z,56.80
2019-02-08T23:41:41.621Z,56.80
2019-02-08T23:44:10.898Z,56.80
2019-02-08T23:46:40.483Z,56.80
2019-02-08T23:49:09.894Z,56.70
2019-02-08T23:51:39.234Z,56.80
2019-02-08T23:54:08.700Z,56.70
2019-02-08T23:56:38.213Z,56.80
2019-02-08T23:59:07.816Z,56.70
